Time;durP1;ratioP1;P1;durP2;ratioP2;P2;SDS_P1;SDS_P2;PMS_P1;PMS_P2;Temp;Humidity;BMP_temperature;BMP_pressure;BME280_temperature;BME280_humidity;BME280_pressure;Samples;Min_cycle;Max_cycle;Signal;HPM_P1;HPM_P2
2023/07/23 00:01:34;;;;;;;11.18;6.00;;;;;;;-145.63;52.83;38965.56;5049686;28;20040;-70
2023/07/23 00:04:00;;;;;;;10.38;6.38;;;;;;;-145.63;52.67;38983.19;5064511;28;20033;-69
2023/07/23 00:06:26;;;;;;;9.80;6.03;;;;;;;-145.63;52.52;38965.56;5064446;28;20036;-68
2023/07/23 00:08:51;;;;;;;15.52;6.82;;;;;;;-145.63;52.38;38977.31;5047532;28;20049;-68
2023/07/23 00:11:17;;;;;;;14.68;7.28;;;;;;;-145.63;52.48;39004.69;5056493;28;20036;-67
2023/07/23 00:13:43;;;;;;;11.55;6.25;;;;;;;-145.63;52.78;38991.00;5056938;28;20029;-67
2023/07/23 00:16:08;;;;;;;10.88;6.53;;;;;;;-145.63;53.25;38971.44;5044472;28;20045;-68
2023/07/23 00:18:34;;;;;;;13.57;7.07;;;;;;;-145.63;52.92;38967.53;5044133;28;20029;-69
2023/07/23 00:21:00;;;;;;;11.32;6.93;;;;;;;-145.63;52.90;38969.50;5062166;28;20033;-68
2023/07/23 00:23:25;;;;;;;12.93;7.63;;;;;;;-145.63;53.17;38987.09;5051070;28;20025;-69
2023/07/23 00:25:51;;;;;;;19.40;7.53;;;;;;;-145.63;52.50;38985.13;5044184;28;20081;-68
2023/07/23 00:28:17;;;;;;;12.15;7.75;;;;;;;-145.63;53.12;38998.81;5044443;28;20051;-68
2023/07/23 00:30:42;;;;;;;16.02;8.57;;;;;;;-145.63;53.12;38992.97;5048398;28;20032;-68
2023/07/23 00:33:08;;;;;;;15.60;8.65;;;;;;;-145.63;53.09;38942.13;5063089;28;20103;-68
2023/07/23 00:35:35;;;;;;;15.63;8.75;;;;;;;-145.63;52.94;38967.53;5048558;28;20021;-68
2023/07/23 00:38:00;;;;;;;18.25;8.32;;;;;;;-145.63;53.50;39028.16;5053762;28;20025;-68
2023/07/23 00:40:26;;;;;;;14.90;8.80;;;;;;;-145.63;53.99;39008.59;5061741;28;20044;-68
2023/07/23 00:42:51;;;;;;;17.58;9.77;;;;;;;-145.63;53.65;39002.72;5064083;28;20024;-69
2023/07/23 00:45:17;;;;;;;15.50;9.07;;;;;;;-145.63;54.01;39016.44;5042912;28;20040;-68
2023/07/23 00:47:44;;;;;;;16.00;8.25;;;;;;;-145.63;53.93;38973.41;5059162;28;20327;-68
2023/07/23 00:50:12;;;;;;;13.95;8.40;;;;;;;-145.63;53.80;38963.63;5053129;28;20021;-68
2023/07/23 00:52:38;;;;;;;16.98;9.35;;;;;;;-145.63;54.32;38963.63;5049970;28;20031;-69
2023/07/23 00:55:05;;;;;;;19.17;9.23;;;;;;;-145.63;54.17;38985.13;5063586;28;20029;-69
2023/07/23 00:57:33;;;;;;;14.30;8.45;;;;;;;-145.63;54.58;39030.13;5063630;28;20103;-68
2023/07/23 00:59:59;;;;;;;17.55;9.27;;;;;;;-145.63;54.46;38998.81;5046267;28;20033;-69
2023/07/23 01:02:26;;;;;;;15.05;8.45;;;;;;;-145.63;54.46;39022.28;5043642;28;20041;-69
2023/07/23 01:04:52;;;;;;;11.82;8.95;;;;;;;-145.63;54.67;39014.47;5051641;28;20033;-68
2023/07/23 01:07:18;;;;;;;13.63;8.45;;;;;;;-145.63;54.62;39004.69;5060457;28;20017;-68
2023/07/23 01:09:45;;;;;;;12.43;8.88;;;;;;;-145.63;54.54;38998.81;5043314;28;20068;-69
2023/07/23 01:12:11;;;;;;;17.00;8.63;;;;;;;-145.63;54.73;38989.03;5062616;28;20060;-69
2023/07/23 01:14:37;;;;;;;12.13;8.48;;;;;;;-145.63;54.58;39010.56;5048818;28;20381;-68
2023/07/23 01:17:04;;;;;;;13.38;8.63;;;;;;;-145.63;54.56;38971.44;5043253;28;20056;-68
2023/07/23 01:19:29;;;;;;;13.90;9.20;;;;;;;-145.63;54.72;38994.91;5048156;28;20225;-69
2023/07/23 01:22:00;;;;;;;17.02;8.65;;;;;;;-145.63;55.09;39067.28;5063178;28;20024;-69
2023/07/23 01:24:26;;;;;;;18.63;9.63;;;;;;;-145.63;55.32;39014.47;5043106;28;20022;-68
2023/07/23 01:26:51;;;;;;;19.50;10.18;;;;;;;-145.63;55.03;39000.78;5059422;28;20060;-68
2023/07/23 01:29:17;;;;;;;12.15;7.95;;;;;;;-145.63;54.51;39024.25;5051854;28;20029;-68
2023/07/23 01:31:43;;;;;;;13.85;7.57;;;;;;;-145.63;54.47;39022.28;5054674;28;20048;-69
2023/07/23 01:34:08;;;;;;;12.77;7.78;;;;;;;-145.63;53.86;39020.34;5063046;28;20025;-69
2023/07/23 01:36:34;;;;;;;11.30;7.40;;;;;;;-145.63;54.17;38987.09;5062985;28;20317;-68
2023/07/23 01:39:00;;;;;;;20.55;9.25;;;;;;;-145.63;54.28;39016.44;5044832;28;20036;-69
2023/07/23 01:41:26;;;;;;;13.30;8.52;;;;;;;-145.63;54.21;39032.06;5043294;28;20460;-69
2023/07/23 01:43:52;;;;;;;14.73;8.98;;;;;;;-145.63;54.42;39020.34;5050752;28;20104;-69
2023/07/23 01:46:17;;;;;;;12.50;7.80;;;;;;;-145.63;54.32;39043.81;5059856;28;20075;-69
2023/07/23 01:48:43;;;;;;;12.43;7.72;;;;;;;-145.63;54.20;39020.34;5042813;28;20038;-69
2023/07/23 01:51:10;;;;;;;17.05;7.55;;;;;;;-145.63;54.03;39022.28;5061310;28;20236;-67
2023/07/23 01:53:36;;;;;;;12.35;7.32;;;;;;;-145.63;53.77;39018.38;5049057;28;20047;-68
2023/07/23 01:56:01;;;;;;;12.70;6.95;;;;;;;-145.63;54.20;39016.44;5051812;28;20028;-69
2023/07/23 01:58:27;;;;;;;14.60;7.22;;;;;;;-145.63;54.14;39028.16;5058398;28;20079;-69
2023/07/23 02:01:04;;;;;;;14.13;6.70;;;;;;;-145.63;53.87;38994.91;5042785;28;20037;-69
2023/07/23 02:03:30;;;;;;;12.43;6.25;;;;;;;-145.63;54.08;39028.16;5043407;28;20090;-68
2023/07/23 02:05:58;;;;;;;15.25;7.30;;;;;;;-145.63;54.10;39032.06;5061394;28;20099;-69
2023/07/23 02:08:23;;;;;;;11.13;6.75;;;;;;;-145.63;53.65;39012.50;5054775;28;20334;-68
2023/07/23 02:10:49;;;;;;;12.13;6.95;;;;;;;-145.63;53.47;39034.03;5053871;28;20028;-68
2023/07/23 02:13:15;;;;;;;11.73;6.65;;;;;;;-145.63;53.83;38994.91;5063249;28;20306;-68
2023/07/23 02:15:41;;;;;;;15.75;7.00;;;;;;;-145.63;53.44;39039.88;5046463;28;20051;-69
2023/07/23 02:18:07;;;;;;;11.60;6.60;;;;;;;-145.63;53.48;39112.25;5046514;28;20101;-69
2023/07/23 02:20:33;;;;;;;11.40;6.63;;;;;;;-145.63;53.40;39018.38;5059350;28;20179;-69
2023/07/23 02:22:58;;;;;;;11.27;6.90;;;;;;;-145.63;53.46;38998.81;5058114;28;20037;-69
2023/07/23 02:25:24;;;;;;;13.85;6.95;;;;;;;-145.63;53.35;38994.91;5049801;28;20077;-68
2023/07/23 02:27:50;;;;;;;14.63;6.85;;;;;;;-145.63;53.06;38996.88;5066469;28;20094;-68
2023/07/23 02:30:15;;;;;;;13.25;6.25;;;;;;;-145.63;53.24;38989.03;5048247;28;20076;-69
2023/07/23 02:32:41;;;;;;;14.73;6.82;;;;;;;-145.63;52.96;38994.91;5066263;28;20048;-68
2023/07/23 02:35:07;;;;;;;15.13;6.75;;;;;;;-145.63;52.99;38989.03;5056940;28;20025;-68
2023/07/23 02:37:33;;;;;;;12.25;6.88;;;;;;;-145.63;52.91;38969.50;5050716;28;20325;-68
2023/07/23 02:39:58;;;;;;;12.90;6.78;;;;;;;-145.63;52.91;38975.34;5066087;28;20036;-68
2023/07/23 02:42:24;;;;;;;10.75;6.05;;;;;;;-145.63;53.25;38965.56;5066088;28;20032;-69
2023/07/23 02:44:50;;;;;;;13.68;6.75;;;;;;;-145.63;53.13;38965.56;5050991;28;20029;-69
2023/07/23 02:47:16;;;;;;;10.27;6.22;;;;;;;-145.63;53.13;38914.72;5056586;28;20051;-68
2023/07/23 02:49:42;;;;;;;13.23;6.45;;;;;;;-145.63;52.96;38985.13;5060199;28;20025;-69
2023/07/23 02:52:07;;;;;;;12.07;6.38;;;;;;;-145.63;52.82;38963.63;5045833;28;20037;-67
2023/07/23 02:54:33;;;;;;;11.48;5.88;;;;;;;-145.63;52.82;38955.81;5045637;28;20337;-68
2023/07/23 02:56:59;;;;;;;13.05;6.82;;;;;;;-145.63;53.00;38989.03;5060869;28;20221;-68
2023/07/23 02:59:24;;;;;;;9.00;5.80;;;;;;;-145.63;52.61;38977.31;5054057;28;20025;-68
2023/07/23 03:01:50;;;;;;;10.45;5.80;;;;;;;-145.63;52.90;38965.56;5052575;28;20040;-68
2023/07/23 03:04:16;;;;;;;13.05;6.75;;;;;;;-145.63;53.53;38989.03;5062686;28;20036;-68
2023/07/23 03:06:41;;;;;;;12.45;6.10;;;;;;;-145.63;53.01;39004.69;5044537;28;20207;-68
2023/07/23 03:09:07;;;;;;;8.15;5.53;;;;;;;-145.63;52.90;38938.19;5063115;28;20031;-68
2023/07/23 03:11:33;;;;;;;8.98;5.28;;;;;;;-145.63;52.58;38967.53;5052877;28;20025;-68
2023/07/23 03:13:59;;;;;;;11.35;6.05;;;;;;;-145.63;53.02;38983.19;5053422;28;20536;-68
2023/07/23 03:16:24;;;;;;;9.85;5.47;;;;;;;-145.63;51.87;38961.66;5060839;28;20021;-68
2023/07/23 03:18:50;;;;;;;11.15;5.97;;;;;;;-145.63;52.19;38918.66;5045844;28;20045;-68
2023/07/23 03:21:16;;;;;;;9.95;5.63;;;;;;;-145.63;51.79;38930.38;5063744;28;20318;-68
2023/07/23 03:23:41;;;;;;;11.18;5.90;;;;;;;-145.63;52.10;38906.91;5051356;28;20327;-69
2023/07/23 03:26:07;;;;;;;8.05;5.30;;;;;;;-145.63;51.72;38922.56;5054192;28;20404;-69
2023/07/23 03:28:33;;;;;;;9.05;5.32;;;;;;;-145.63;51.60;38926.47;5060908;28;20060;-69
2023/07/23 03:30:58;;;;;;;9.38;5.20;;;;;;;-145.63;51.52;38949.94;5051967;28;20025;-68
2023/07/23 03:33:25;;;;;;;9.75;5.75;;;;;;;-145.63;51.46;38918.66;5065274;28;20025;-68
2023/07/23 03:35:50;;;;;;;10.45;5.72;;;;;;;-145.63;51.33;38938.19;5050612;28;20021;-68
2023/07/23 03:38:16;;;;;;;9.13;5.55;;;;;;;-145.63;51.04;38926.47;5055138;28;20376;-69
2023/07/23 03:40:42;;;;;;;12.52;5.78;;;;;;;-145.63;51.41;38910.81;5064129;28;20029;-69
2023/07/23 03:43:07;;;;;;;10.40;5.78;;;;;;;-145.63;51.43;38889.31;5064657;28;20032;-69
2023/07/23 03:45:33;;;;;;;9.07;5.18;;;;;;;-145.63;51.80;38863.88;5044858;28;20028;-69
2023/07/23 03:47:59;;;;;;;7.22;5.32;;;;;;;-145.63;50.30;38861.94;5060825;28;20068;-68
2023/07/23 03:50:24;;;;;;;8.68;5.00;;;;;;;-145.63;49.83;38805.22;5053785;28;20032;-69
2023/07/23 03:52:50;;;;;;;8.60;5.18;;;;;;;-145.63;48.31;38830.66;5051291;28;20025;-69
2023/07/23 03:55:16;;;;;;;10.25;5.05;;;;;;;-145.63;47.64;38787.63;5062245;28;20048;-69
2023/07/23 03:57:41;;;;;;;8.30;5.63;;;;;;;-145.63;47.44;38758.28;5044788;28;20057;-69
2023/07/23 04:00:08;;;;;;;7.47;5.00;;;;;;;-145.63;47.23;38775.91;5061715;28;20037;-69
2023/07/23 04:02:34;;;;;;;11.00;5.38;;;;;;;-145.63;47.60;38742.66;5043409;28;20064;-68
2023/07/23 04:05:00;;;;;;;7.20;5.07;;;;;;;-145.63;47.00;38756.34;5047712;28;20334;-68
2023/07/23 04:07:25;;;;;;;8.32;5.18;;;;;;;-145.63;45.68;38750.47;5047304;28;20040;-70
2023/07/23 04:09:53;;;;;;;6.72;4.90;;;;;;;-145.63;45.47;38781.75;5064614;28;20025;-69
2023/07/23 04:12:18;;;;;;;7.88;4.55;;;;;;;-145.63;45.55;38754.38;5046338;28;20037;-69
2023/07/23 04:14:44;;;;;;;13.13;4.93;;;;;;;-145.63;45.48;38791.53;5057965;28;20217;-69
2023/07/23 04:17:10;;;;;;;7.70;4.60;;;;;;;-145.63;45.73;38756.34;5055720;28;20063;-69
2023/07/23 04:19:37;;;;;;;8.48;5.03;;;;;;;-145.63;45.47;38754.38;5048727;28;20044;-69
2023/07/23 04:22:03;;;;;;;7.43;4.97;;;;;;;-145.63;45.55;38754.38;5064333;28;20072;-69
2023/07/23 04:24:29;;;;;;;7.18;4.63;;;;;;;-145.63;45.84;38707.44;5062941;28;20020;-69
2023/07/23 04:26:55;;;;;;;8.77;4.53;;;;;;;-145.63;45.68;38738.75;5049316;28;20052;-69
2023/07/23 04:29:20;;;;;;;8.18;4.72;;;;;;;-145.63;45.68;38758.28;5053869;28;20335;-69
2023/07/23 04:31:46;;;;;;;7.55;4.63;;;;;;;-145.63;45.41;38715.28;5064089;28;20029;-69
2023/07/23 04:34:12;;;;;;;9.05;4.93;;;;;;;-145.63;44.89;38707.44;5063510;28;20032;-69
2023/07/23 04:36:37;;;;;;;9.63;4.88;;;;;;;-145.63;43.69;38687.91;5044089;28;20052;-70
2023/07/23 04:39:03;;;;;;;5.63;4.32;;;;;;;-145.63;43.97;38707.44;5059900;28;20036;-68
2023/07/23 04:41:30;;;;;;;8.65;4.95;;;;;;;-145.63;43.58;38605.78;5062277;28;20029;-69
2023/07/23 04:43:55;;;;;;;8.05;5.13;;;;;;;-145.63;44.12;38672.25;5057249;28;20025;-68
2023/07/23 04:46:21;;;;;;;7.32;5.20;;;;;;;-145.63;43.13;38668.34;5045753;28;20025;-69
2023/07/23 04:48:47;;;;;;;6.35;4.40;;;;;;;-145.63;43.41;38652.69;5063670;28;20048;-70
2023/07/23 04:51:12;;;;;;;9.73;4.57;;;;;;;-145.63;42.46;38648.78;5046647;28;20217;-69
2023/07/23 04:53:38;;;;;;;7.13;4.65;;;;;;;-145.63;42.21;38650.75;5055993;28;20207;-69
2023/07/23 04:56:05;;;;;;;7.13;4.50;;;;;;;-145.63;42.19;38566.66;5063692;28;20025;-69
2023/07/23 04:58:31;;;;;;;9.32;4.97;;;;;;;-145.63;41.83;38640.97;5060459;28;20025;-69
2023/07/23 05:01:01;;;;;;;7.15;4.30;;;;;;;-145.63;41.97;38637.06;5043827;28;20033;-69
2023/07/23 05:03:26;;;;;;;9.60;4.35;;;;;;;-145.63;42.05;38621.41;5062181;28;20040;-70
2023/07/23 05:05:54;;;;;;;5.10;3.95;;;;;;;-145.63;42.33;38603.81;5049237;28;20087;-70
2023/07/23 05:08:21;;;;;;;6.32;3.83;;;;;;;-145.63;41.06;38584.25;5053170;28;20031;-69
2023/07/23 05:10:48;;;;;;;6.68;3.53;;;;;;;-145.63;40.45;38578.41;5058251;28;20302;-68
2023/07/23 05:13:15;;;;;;;7.05;3.88;;;;;;;-145.63;40.39;38566.66;5043988;28;20025;-69
2023/07/23 05:15:41;;;;;;;8.85;4.07;;;;;;;-145.63;40.87;38609.69;5063147;28;20320;-68
2023/07/23 05:18:08;;;;;;;6.93;3.80;;;;;;;-145.63;40.17;38513.88;5047176;28;20056;-69
2023/07/23 05:20:34;;;;;;;5.40;3.50;;;;;;;-145.63;40.79;38492.34;5054551;28;20044;-70
2023/07/23 05:22:59;;;;;;;5.97;3.60;;;;;;;-145.63;40.73;38484.53;5056561;28;20074;-69
2023/07/23 05:25:25;;;;;;;6.43;3.92;;;;;;;-145.63;41.40;38429.78;5045133;28;20321;-68
2023/07/23 05:27:51;;;;;;;3.78;3.13;;;;;;;-145.63;39.22;38439.56;5063367;28;20029;-69
2023/07/23 05:30:17;;;;;;;4.18;3.22;;;;;;;-145.63;38.37;38431.75;5046769;28;20345;-69
2023/07/23 05:32:43;;;;;;;5.50;3.08;;;;;;;-145.63;38.56;38421.97;5063228;28;20123;-69
2023/07/23 05:35:10;;;;;;;6.78;3.05;;;;;;;-145.63;38.43;38412.19;5063048;28;20360;-69
2023/07/23 05:37:36;;;;;;;6.55;3.67;;;;;;;-145.63;38.04;38363.31;5059792;28;20037;-69
2023/07/23 05:40:03;;;;;;;4.05;2.75;;;;;;;-145.63;38.00;38351.56;5042578;28;20147;-68
2023/07/23 05:42:30;;;;;;;6.28;3.25;;;;;;;-145.63;37.59;38406.31;5043884;28;20048;-69
2023/07/23 05:44:55;;;;;;;9.68;3.60;;;;;;;-145.63;37.49;38382.88;5043048;28;20298;-70
2023/07/23 05:47:21;;;;;;;7.57;3.53;;;;;;;-145.63;36.89;38347.66;5052815;28;20025;-69
2023/07/23 05:49:47;;;;;;;6.22;2.92;;;;;;;-145.63;37.47;38392.63;5058355;28;20032;-70
2023/07/23 05:52:12;;;;;;;5.35;3.35;;;;;;;-145.63;37.92;38345.72;5042570;28;20018;-71
2023/07/23 05:54:38;;;;;;;5.88;3.00;;;;;;;-145.63;38.00;38382.88;5063204;28;20226;-69
2023/07/23 05:57:04;;;;;;;13.20;4.68;;;;;;;-145.63;38.35;38365.25;5047864;28;20033;-69
2023/07/23 05:59:30;;;;;;;9.00;3.90;;;;;;;-145.63;38.63;38308.56;5053388;28;20029;-68
2023/07/23 06:01:55;;;;;;;9.15;3.40;;;;;;;-145.63;38.56;38275.31;5056792;28;20041;-69
2023/07/23 06:04:21;;;;;;;12.10;4.20;;;;;;;-145.63;38.73;38281.19;5042763;28;20057;-69
2023/07/23 06:06:47;;;;;;;8.82;3.80;;;;;;;-145.63;37.55;38269.47;5045165;28;20307;-69
2023/07/23 06:09:13;;;;;;;9.95;4.15;;;;;;;-145.63;37.66;38308.56;5046314;28;20257;-70
2023/07/23 06:11:38;;;;;;;7.30;3.90;;;;;;;-145.63;37.82;38267.50;5054560;28;20082;-69
2023/07/23 06:14:06;;;;;;;11.38;4.43;;;;;;;-145.63;37.74;38210.81;5055638;28;20052;-69
2023/07/23 06:16:32;;;;;;;10.23;4.45;;;;;;;-145.63;38.48;38220.56;5044999;28;20226;-69
2023/07/23 06:18:58;;;;;;;10.43;3.45;;;;;;;-145.63;36.51;38267.50;5062877;28;20021;-70
2023/07/23 06:21:24;;;;;;;8.73;3.60;;;;;;;-145.63;36.47;38287.06;5045067;28;20048;-70
2023/07/23 06:23:50;;;;;;;9.00;3.42;;;;;;;-145.63;36.94;38328.13;5055917;28;20024;-70
2023/07/23 06:26:16;;;;;;;7.82;3.22;;;;;;;-145.63;36.91;38281.19;5054432;28;20029;-70
2023/07/23 06:28:41;;;;;;;9.73;3.58;;;;;;;-145.63;36.35;38273.38;5045219;28;20332;-69
2023/07/23 06:31:07;;;;;;;6.57;3.22;;;;;;;-145.63;36.91;38263.59;5062522;28;20024;-70
2023/07/23 06:33:33;;;;;;;5.05;2.80;;;;;;;-145.63;34.42;38335.94;5062832;28;20032;-69
2023/07/23 06:36:01;;;;;;;5.20;2.17;;;;;;;-145.63;34.87;38281.19;5048415;28;20033;-68
2023/07/23 06:38:27;;;;;;;4.30;2.20;;;;;;;-145.63;34.14;38375.03;5052447;28;20058;-69
2023/07/23 06:40:54;;;;;;;4.68;2.22;;;;;;;-145.63;33.41;38351.56;5058957;28;20029;-69
2023/07/23 06:43:21;;;;;;;4.63;2.28;;;;;;;-145.63;33.89;38408.28;5061926;28;20029;-70
2023/07/23 06:45:48;;;;;;;4.18;1.92;;;;;;;-145.63;33.80;38418.06;5042546;28;20026;-70
2023/07/23 06:48:14;;;;;;;2.75;2.22;;;;;;;-145.63;33.26;38386.78;5058132;28;20075;-69
2023/07/23 06:50:40;;;;;;;4.75;2.20;;;;;;;-145.63;33.71;38420.00;5062419;28;20025;-70
2023/07/23 06:53:06;;;;;;;5.03;2.10;;;;;;;-145.63;34.94;38392.63;5059148;28;20093;-70
2023/07/23 06:55:55;;;;;;;3.88;2.08;;;;;;;-145.63;34.87;38404.38;5045914;28;20029;-68
2023/07/23 06:58:21;;;;;;;3.35;2.00;;;;;;;-145.63;33.90;38453.25;5046646;28;20045;-68
2023/07/23 07:00:46;;;;;;;6.80;2.80;;;;;;;-145.63;34.29;38441.53;5064625;28;20025;-69
2023/07/23 07:03:12;;;;;;;4.80;2.13;;;;;;;-145.63;34.48;38371.13;5050038;28;20033;-69
2023/07/23 07:05:38;;;;;;;5.38;2.38;;;;;;;-145.63;35.25;38377.00;5056828;28;20036;-70
2023/07/23 07:08:04;;;;;;;5.57;2.22;;;;;;;-145.63;34.98;38416.09;5059589;28;20330;-69
2023/07/23 07:10:30;;;;;;;19.10;12.65;;;;;;;-145.63;36.44;38375.03;5047327;28;20111;-69
2023/07/23 07:12:55;;;;;;;6.05;4.50;;;;;;;-145.63;36.54;38363.31;5066033;28;20233;-70
2023/07/23 07:15:21;;;;;;;9.20;4.95;;;;;;;-145.63;36.55;38400.47;5048649;28;20037;-68
2023/07/23 07:17:47;;;;;;;11.48;9.18;;;;;;;-145.63;36.89;38404.38;5045516;28;20033;-71
2023/07/23 07:20:12;;;;;;;4.18;3.20;;;;;;;-145.63;37.37;38380.91;5051866;28;20025;-69
2023/07/23 07:22:38;;;;;;;4.35;3.78;;;;;;;-145.63;38.40;38380.91;5062479;28;20104;-69
2023/07/23 07:25:04;;;;;;;5.72;3.50;;;;;;;-145.63;39.53;38441.53;5045442;28;20017;-69
2023/07/23 07:27:30;;;;;;;5.68;3.30;;;;;;;-145.63;39.88;38433.69;5062251;28;20025;-69
2023/07/23 07:29:56;;;;;;;4.82;3.50;;;;;;;-145.63;39.85;38445.44;5051962;28;20037;-70
2023/07/23 07:32:21;;;;;;;8.77;5.18;;;;;;;-145.63;40.09;38414.16;5063258;28;20352;-70
2023/07/23 07:34:47;;;;;;;8.55;3.95;;;;;;;-145.63;40.06;38388.72;5065034;28;20033;-70
2023/07/23 07:37:13;;;;;;;10.18;4.18;;;;;;;-145.63;40.68;38423.91;5065266;28;20078;-70
2023/07/23 07:39:40;;;;;;;6.50;3.50;;;;;;;-145.63;40.50;38435.66;5045818;28;20100;-70
2023/07/23 07:42:06;;;;;;;4.30;3.67;;;;;;;-145.63;41.40;38423.91;5046722;28;20095;-70
2023/07/23 07:44:32;;;;;;;6.82;3.55;;;;;;;-145.63;40.43;38394.59;5044384;28;20079;-69
2023/07/23 07:46:58;;;;;;;4.93;3.65;;;;;;;-145.63;40.89;38394.59;5050112;28;20056;-70
2023/07/23 07:49:24;;;;;;;5.50;3.65;;;;;;;-145.63;40.42;38406.31;5064557;28;20040;-70
2023/07/23 07:51:49;;;;;;;4.55;3.58;;;;;;;-145.63;40.36;38359.41;5064481;28;20055;-70
2023/07/23 07:54:15;;;;;;;6.97;3.90;;;;;;;-145.63;40.52;38373.09;5064841;28;20055;-70
2023/07/23 07:56:43;;;;;;;6.90;4.07;;;;;;;-145.63;40.00;38392.63;5064696;28;20340;-70
2023/07/23 07:59:11;;;;;;;6.22;3.97;;;;;;;-145.63;40.24;38371.13;5058064;28;20261;-70
2023/07/23 08:01:37;;;;;;;7.10;3.70;;;;;;;-145.63;40.09;38390.69;5046369;28;20099;-69
2023/07/23 08:04:07;;;;;;;7.90;3.42;;;;;;;-145.63;39.99;38377.00;5064063;28;20056;-69
2023/07/23 08:06:38;;;;;;;8.52;3.10;;;;;;;-145.63;39.82;38386.78;5046324;28;20022;-70
2023/07/23 08:09:06;;;;;;;7.68;3.80;;;;;;;-145.63;39.62;38343.75;5044652;28;20087;-70
2023/07/23 08:11:34;;;;;;;4.95;3.00;;;;;;;-145.63;38.73;38341.81;5054039;28;20237;-69
2023/07/23 08:14:01;;;;;;;4.75;3.30;;;;;;;-145.63;39.01;38371.13;5059237;28;20053;-69
2023/07/23 08:16:27;;;;;;;5.18;3.22;;;;;;;-145.63;40.43;38343.75;5043055;28;20108;-70
2023/07/23 08:18:53;;;;;;;5.40;3.78;;;;;;;-145.63;40.43;38324.19;5043589;28;20033;-70
2023/07/23 08:21:19;;;;;;;4.68;2.75;;;;;;;-145.63;39.69;38285.09;5060530;28;20301;-69
2023/07/23 08:23:45;;;;;;;6.70;3.50;;;;;;;-145.63;39.36;38328.13;5053074;28;20029;-70
2023/07/23 08:26:16;;;;;;;4.40;3.00;;;;;;;-145.63;39.54;38328.13;5050720;28;20349;-69
2023/07/23 08:28:50;;;;;;;3.72;2.80;;;;;;;-145.63;38.46;38308.56;5061387;28;20020;-70
2023/07/23 08:31:18;;;;;;;3.60;2.80;;;;;;;-145.63;38.42;38316.38;5052075;28;20056;-70
2023/07/23 08:33:47;;;;;;;4.82;3.33;;;;;;;-145.63;38.79;38375.03;5064221;28;20029;-70
2023/07/23 08:36:12;;;;;;;6.28;3.50;;;;;;;-145.63;39.45;38371.13;5064204;28;20033;-69
2023/07/23 08:38:38;;;;;;;6.18;3.65;;;;;;;-145.63;39.41;38335.94;5053658;28;20065;-70
2023/07/23 08:41:21;;;;;;;4.43;2.78;;;;;;;-145.63;38.54;38345.72;5047649;28;20101;-70
2023/07/23 08:44:15;;;;;;;9.13;6.57;;;;;;;-145.63;38.14;38355.50;5043712;28;20041;-69
2023/07/23 08:46:45;;;;;;;12.25;8.73;;;;;;;-145.63;38.82;38377.00;5045902;28;20381;-68
2023/07/23 08:49:11;;;;;;;6.10;3.97;;;;;;;-145.63;38.87;38343.75;5064072;28;20025;-70
2023/07/23 08:51:41;;;;;;;8.32;3.40;;;;;;;-145.63;38.82;38396.53;5063827;28;20021;-69
2023/07/23 08:54:08;;;;;;;3.80;3.40;;;;;;;-145.63;38.42;38351.56;5050177;28;20313;-70
2023/07/23 08:56:35;;;;;;;4.63;2.90;;;;;;;-145.63;38.63;38320.28;5052129;28;20083;-69
2023/07/23 08:59:04;;;;;;;5.85;2.83;;;;;;;-145.63;38.03;38367.22;5058756;28;20057;-69
2023/07/23 09:01:33;;;;;;;7.18;3.08;;;;;;;-145.63;38.00;38373.09;5044039;28;20111;-70
2023/07/23 09:04:00;;;;;;;12.82;7.22;;;;;;;-145.63;37.52;38308.56;5063526;28;20025;-69
2023/07/23 09:06:30;;;;;;;4.63;3.88;;;;;;;-145.63;38.83;38240.13;5046785;28;20025;-70
2023/07/23 09:09:10;;;;;;;6.20;2.72;;;;;;;-145.63;37.40;38199.06;5056092;28;20056;-69
2023/07/23 09:11:36;;;;;;;3.80;3.00;;;;;;;-145.63;37.47;38146.28;5052617;28;20119;-70
2023/07/23 09:14:07;;;;;;;4.15;2.55;;;;;;;-145.63;39.58;38130.63;5048335;28;20025;-69
2023/07/23 09:16:39;;;;;;;5.75;3.33;;;;;;;-145.63;37.39;38218.63;5060905;28;20217;-70
2023/07/23 09:19:05;;;;;;;5.07;2.83;;;;;;;-145.63;36.91;38222.53;5043590;28;20093;-68
2023/07/23 09:21:31;;;;;;;5.85;3.20;;;;;;;-145.63;37.04;38222.53;5060677;28;20071;-69
2023/07/23 09:23:57;;;;;;;5.60;3.80;;;;;;;-145.63;37.65;38232.31;5050504;28;20180;-70
2023/07/23 09:26:27;;;;;;;3.95;3.00;;;;;;;-145.63;37.40;38247.94;5050937;28;20104;-69
2023/07/23 09:28:55;;;;;;;6.65;2.90;;;;;;;-145.63;37.70;38322.25;5061985;28;20035;-70
2023/07/23 09:31:26;;;;;;;6.00;3.20;;;;;;;-145.63;37.39;38394.59;5063136;28;20340;-69
2023/07/23 09:33:57;;;;;;;4.47;3.17;;;;;;;-145.63;38.70;38375.03;5063274;28;20024;-68
2023/07/23 09:36:25;;;;;;;6.25;3.83;;;;;;;-145.63;38.53;38341.81;5047295;28;20033;-70
2023/07/23 09:39:00;;;;;;;4.15;3.40;;;;;;;-145.63;38.94;38367.22;5054696;28;20025;-70
2023/07/23 09:41:29;;;;;;;6.15;3.72;;;;;;;-145.63;39.19;38328.13;5059011;28;20028;-70
2023/07/23 09:43:58;;;;;;;5.90;4.25;;;;;;;-145.63;39.08;38341.81;5059402;28;20095;-69
2023/07/23 09:46:25;;;;;;;4.82;3.78;;;;;;;-145.63;38.71;38402.41;5043257;28;20385;-69
2023/07/23 09:48:51;;;;;;;4.00;3.65;;;;;;;-145.63;39.25;38398.50;5062910;28;20054;-70
2023/07/23 09:51:17;;;;;;;6.85;3.75;;;;;;;-145.63;39.03;38421.97;5048130;28;20036;-69
2023/07/23 09:53:45;;;;;;;7.03;3.70;;;;;;;-145.63;41.04;38421.97;5053163;28;20268;-69
2023/07/23 09:56:13;;;;;;;9.80;5.10;;;;;;;-145.63;45.58;38468.91;5057208;28;20021;-68
2023/07/23 09:58:41;;;;;;;12.90;5.22;;;;;;;-145.63;47.42;38554.94;5044150;28;20030;-69
2023/07/23 10:01:07;;;;;;;7.57;4.85;;;;;;;-145.63;49.22;38578.41;5061779;28;20048;-68
2023/07/23 10:03:33;;;;;;;12.60;5.40;;;;;;;-145.63;49.43;38611.63;5046066;28;20061;-67
2023/07/23 10:05:59;;;;;;;11.55;6.03;;;;;;;-145.63;50.25;38619.47;5055440;28;20021;-69
2023/07/23 10:08:28;;;;;;;7.40;5.10;;;;;;;-145.63;50.07;38648.78;5053955;28;20036;-68
2023/07/23 10:10:53;;;;;;;9.52;5.13;;;;;;;-145.63;50.24;38682.03;5046204;28;20067;-67
2023/07/23 10:13:19;;;;;;;6.00;5.40;;;;;;;-145.63;50.82;38695.72;5062674;28;20281;-67
2023/07/23 10:15:47;;;;;;;12.80;5.78;;;;;;;-145.63;51.57;38717.22;5044308;28;20021;-69
2023/07/23 10:18:14;;;;;;;10.48;6.25;;;;;;;-145.63;52.58;38727.00;5056788;28;20056;-67
2023/07/23 10:20:43;;;;;;;11.98;7.10;;;;;;;-145.63;53.39;38723.09;5051804;28;20036;-67
2023/07/23 10:23:09;;;;;;;10.65;6.85;;;;;;;-145.63;53.02;38742.66;5042875;28;20025;-67
2023/07/23 10:25:35;;;;;;;8.55;5.70;;;;;;;-145.63;51.49;38717.22;5042343;28;20294;-68
2023/07/23 10:28:04;;;;;;;10.55;6.45;;;;;;;-145.63;52.59;38695.72;5065487;28;20067;-67
2023/07/23 10:30:32;;;;;;;8.23;6.78;;;;;;;-145.63;53.39;38703.53;5052741;28;20033;-68
2023/07/23 10:33:10;;;;;;;9.40;7.38;;;;;;;-145.63;53.64;38711.38;5066671;28;20021;-68
2023/07/23 10:35:52;;;;;;;8.93;6.72;;;;;;;-145.63;53.91;38707.44;5057693;28;20101;-68
2023/07/23 10:38:28;;;;;;;7.90;7.10;;;;;;;-145.63;54.27;38685.94;5052491;28;20035;-68
2023/07/23 10:40:54;;;;;;;10.10;6.80;;;;;;;-145.63;53.21;38689.84;5061741;28;20762;-68
2023/07/23 10:43:20;;;;;;;9.50;7.60;;;;;;;-145.63;54.02;38676.16;5064873;28;20311;-67
2023/07/23 10:46:03;;;;;;;7.93;6.88;;;;;;;-145.63;53.26;38656.59;5047362;28;20021;-67
2023/07/23 10:48:40;;;;;;;10.57;7.90;;;;;;;-145.63;54.13;38601.84;5060871;28;20092;-68
2023/07/23 10:51:10;;;;;;;14.88;9.38;;;;;;;-145.63;54.72;38621.41;5053457;28;20128;-67
2023/07/23 10:53:41;;;;;;;11.70;8.50;;;;;;;-145.63;55.71;38611.63;5053570;28;20037;-66
2023/07/23 10:56:27;;;;;;;11.38;7.75;;;;;;;-145.63;55.02;38570.56;5061424;28;20075;-68
2023/07/23 10:58:58;;;;;;;8.13;6.35;;;;;;;-145.63;52.85;38623.38;5048664;28;20036;-68
2023/07/23 11:01:26;;;;;;;7.07;5.88;;;;;;;-145.63;53.40;38621.41;5065734;28;20048;-67
2023/07/23 11:03:55;;;;;;;8.27;6.45;;;;;;;-145.63;52.54;38609.69;5046671;28;20048;-68
2023/07/23 11:06:33;;;;;;;8.02;6.07;;;;;;;-145.63;54.14;38625.31;5060461;28;20048;-67
2023/07/23 11:09:08;;;;;;;6.55;5.93;;;;;;;-145.63;52.50;38664.44;5053789;28;20033;-66
2023/07/23 11:11:36;;;;;;;6.10;5.60;;;;;;;-145.63;51.97;38654.66;5054011;28;20031;-66
2023/07/23 11:14:04;;;;;;;6.07;5.47;;;;;;;-145.63;51.59;38656.59;5061529;28;20339;-68